Detall de PIREP

Printer-friendly versionPDF version

[2009/05/30 21:50:00]
Flight IATA:CT2101
Pilot Number:026
Company ICAO:CAT
Aircraft Type:DC85/A
PAX:125
Departing Airport: LEAS
Destination Airport: LEVC
Alternate Airport:LEPA
Online: VATSIM
Route:RATPO/N380F220 R107 VEDER/N430F340 UM30 ZMR UL155 KALMA UH100 CJN UN733 CLS
Flight Level:FL340
No Slew and time accel
No pause
Crash detect
Detect pilot in Cockpit between each 30 and 45 minutes
21:50 Zero fuel Weight: 185719 Lbs, Fuel Weight: 21992 Lbs
21:50 VATSIM:LEAS 302130Z 11004KT 080V140 0250 R29/0200V0300N R11/0250N FG BKN001 13/12 Q1016 NOSIG
21:50 VATSIM:LEVC 302130Z VRB02KT CAVOK 21/13 Q1014 NOSIG
21:51 VOICE CATALONIAN
22:07 Parking Brakes off
22:14 Take-off
22:14 Take off Weight: 206332 Lbs
22:14 Wind: 140º @ 004 Knots Heading: 109º
22:14 POS N43º 33´ 41´´ W006º 01´ 35´´
22:14 Flaps:2 at 160 Knots
22:14 Gear Up: 163 Knots
22:16 Flaps:1 at 168 Knots
22:17
Flaps:0 at 211 Knots
22:29 Wind:010º@011 Knots Heading: 172º Ground Speed: 486 Knots Altitude 28323 ft
22:34 TOC
22:34 Fuel Weight: 13977 Lb
22:44 Wind:038º@021 Knots Heading: 135º Ground Speed: 440 Knots Altitude 34045 ft
22:59 Wind:041º@018 Knots Heading: 115º Ground Speed: 442 Knots Altitude 34035 ft
23:03 TOD
23:03 Fuel Weight: 8962 Lb
00:12 UTC Jump: removed 1 Hour from Log
23:12 UTC Jump: added 1 Hour to Log
23:14 Wind:350º@007 Knots Heading: 283º Ground Speed: 290 Knots Altitude 8740 ft
23:23 Flaps:1 at 240 Knots
23:23 Gear Down: 230 Knots
23:23 Flaps:2 at 196 Knots
23:23 Flaps:3 at 188 Knots
23:25 Flaps:4 at 151 Knots
23:25 Flaps:5 at 142 Knots
23:26 TouchDown:Rate -738 ft/min Speed: 125 Knots
23:26 VATSIM:LEVC 302300Z 34004KT CAVOK 19/11 Q1014 NOSIG
23:26 Land
23:26 Wind:343º@004 Knots
23:26 Heading: 115º
23:26 Flight Duration: 01:12
23:26 Land
ing Weight: 193211 Lbs
23:26 POS N39º 29´ 21´´ W000º 28´ 53´´
23:30 Parking brakes on
23:30 Block to Block Duration: 01:23
23:30 Final Fuel: 7125 Lbls
23:30 Spent Fuel: 14867 Lbls
23:30 Flight Length: 456 NM
23:30 TOD Land Length: 111 NM

Exportar CSV

Powered by Drupal - Modified by Danger4k